< < Back
Terminal Aerodrome Forecast


Current Version              Previous Versions:   1  2  3  4  5  6  7  8  9  

Terminal Aerodrome Forecast

398
FTUS44 KMRX 272106 AAA
TAFCHA
TAF AMD
KCHA 272106Z 2721/2818 33008KT P6SM VCTS SCT050CB BKN120
      TEMPO 2721/2723 4SM -TSRA BR SCT030CB BKN050
     FM280000 36005KT P6SM VCTS SCT035CB BKN080
     FM280700 36004KT P6SM FEW040 BKN120
     FM281400 01010KT P6SM SCT150=

Latest METAR

879
SAUS80 KWBC 282200 RRD
MTRCHA
METAR KCHA 282153Z 04011KT 10SM SCT065 SCT250 34/12 A2996 RMK AO2 SLP136
T03440117


USA.gov is the U.S. government's official web portal to all federal, state and local government web resources and services.